sensor_id;sensor_type;location;lat;lon;timestamp;P1;durP1;ratioP1;P2;durP2;ratioP2
76552;SDS011;65395;53.168;18.156;2023-03-14T00:01:07;7.00;;;3.70;;
76552;SDS011;65395;53.168;18.156;2023-03-14T00:03:34;7.50;;;3.60;;
76552;SDS011;65395;53.168;18.156;2023-03-14T00:06:02;8.00;;;3.50;;
76552;SDS011;65395;53.168;18.156;2023-03-14T00:08:30;7.10;;;3.70;;
76552;SDS011;65395;53.168;18.156;2023-03-14T00:10:57;7.30;;;3.80;;
76552;SDS011;65395;53.168;18.156;2023-03-14T00:13:24;7.40;;;3.90;;
76552;SDS011;65395;53.168;18.156;2023-03-14T00:15:51;6.60;;;3.70;;
76552;SDS011;65395;53.168;18.156;2023-03-14T00:18:18;6.50;;;3.90;;
76552;SDS011;65395;53.168;18.156;2023-03-14T00:20:46;7.30;;;4.00;;
76552;SDS011;65395;53.168;18.156;2023-03-14T00:23:12;8.40;;;3.90;;
76552;SDS011;65395;53.168;18.156;2023-03-14T00:25:39;9.30;;;4.20;;
76552;SDS011;65395;53.168;18.156;2023-03-14T00:28:06;9.20;;;4.20;;
76552;SDS011;65395;53.168;18.156;2023-03-14T00:30:37;7.40;;;4.80;;
76552;SDS011;65395;53.168;18.156;2023-03-14T00:33:04;9.70;;;4.20;;
76552;SDS011;65395;53.168;18.156;2023-03-14T00:35:31;8.70;;;4.60;;
76552;SDS011;65395;53.168;18.156;2023-03-14T00:37:57;9.80;;;4.50;;
76552;SDS011;65395;53.168;18.156;2023-03-14T00:40:24;7.40;;;4.80;;
76552;SDS011;65395;53.168;18.156;2023-03-14T00:42:50;8.40;;;4.70;;
76552;SDS011;65395;53.168;18.156;2023-03-14T00:45:17;9.00;;;4.50;;
76552;SDS011;65395;53.168;18.156;2023-03-14T00:47:44;9.90;;;5.10;;
76552;SDS011;65395;53.168;18.156;2023-03-14T00:50:11;8.30;;;4.00;;
76552;SDS011;65395;53.168;18.156;2023-03-14T00:52:38;6.70;;;3.20;;
76552;SDS011;65395;53.168;18.156;2023-03-14T00:55:06;7.00;;;3.30;;
76552;SDS011;65395;53.168;18.156;2023-03-14T00:57:33;7.60;;;3.30;;
76552;SDS011;65395;53.168;18.156;2023-03-14T01:00:00;7.10;;;3.40;;
76552;SDS011;65395;53.168;18.156;2023-03-14T01:02:27;5.90;;;3.00;;
76552;SDS011;65395;53.168;18.156;2023-03-14T01:04:56;4.80;;;2.80;;
76552;SDS011;65395;53.168;18.156;2023-03-14T01:07:23;6.20;;;3.30;;
76552;SDS011;65395;53.168;18.156;2023-03-14T01:09:51;5.50;;;2.80;;
76552;SDS011;65395;53.168;18.156;2023-03-14T01:12:19;4.30;;;2.70;;
76552;SDS011;65395;53.168;18.156;2023-03-14T01:14:45;5.90;;;2.80;;
76552;SDS011;65395;53.168;18.156;2023-03-14T01:17:12;3.30;;;2.00;;
76552;SDS011;65395;53.168;18.156;2023-03-14T01:19:39;6.30;;;2.80;;
76552;SDS011;65395;53.168;18.156;2023-03-14T01:22:05;3.90;;;2.10;;
76552;SDS011;65395;53.168;18.156;2023-03-14T01:24:32;5.20;;;2.30;;
76552;SDS011;65395;53.168;18.156;2023-03-14T01:26:59;4.70;;;2.10;;
76552;SDS011;65395;53.168;18.156;2023-03-14T01:29:26;5.90;;;2.80;;
76552;SDS011;65395;53.168;18.156;2023-03-14T01:31:52;4.70;;;2.10;;
76552;SDS011;65395;53.168;18.156;2023-03-14T01:34:19;5.90;;;2.40;;
76552;SDS011;65395;53.168;18.156;2023-03-14T01:36:47;4.90;;;2.40;;
76552;SDS011;65395;53.168;18.156;2023-03-14T01:39:13;4.40;;;2.20;;
76552;SDS011;65395;53.168;18.156;2023-03-14T01:41:41;5.60;;;2.40;;
76552;SDS011;65395;53.168;18.156;2023-03-14T01:44:09;5.70;;;2.40;;
76552;SDS011;65395;53.168;18.156;2023-03-14T01:46:40;4.00;;;2.10;;
76552;SDS011;65395;53.168;18.156;2023-03-14T01:52:01;4.80;;;2.00;;
76552;SDS011;65395;53.168;18.156;2023-03-14T01:54:44;5.00;;;2.10;;
76552;SDS011;65395;53.168;18.156;2023-03-14T01:57:19;3.60;;;1.90;;
76552;SDS011;65395;53.168;18.156;2023-03-14T01:59:52;4.50;;;2.00;;
76552;SDS011;65395;53.168;18.156;2023-03-14T02:02:24;4.40;;;1.90;;
76552;SDS011;65395;53.168;18.156;2023-03-14T02:04:53;4.60;;;2.10;;
76552;SDS011;65395;53.168;18.156;2023-03-14T02:07:27;4.20;;;2.10;;
76552;SDS011;65395;53.168;18.156;2023-03-14T02:10:12;4.20;;;2.10;;
76552;SDS011;65395;53.168;18.156;2023-03-14T02:12:42;2.90;;;1.80;;
76552;SDS011;65395;53.168;18.156;2023-03-14T02:15:19;4.00;;;2.10;;
76552;SDS011;65395;53.168;18.156;2023-03-14T02:17:54;5.80;;;2.10;;
76552;SDS011;65395;53.168;18.156;2023-03-14T02:20:47;5.20;;;2.20;;
76552;SDS011;65395;53.168;18.156;2023-03-14T02:26:11;3.50;;;2.00;;
76552;SDS011;65395;53.168;18.156;2023-03-14T02:28:45;3.20;;;1.80;;
76552;SDS011;65395;53.168;18.156;2023-03-14T02:31:12;3.70;;;1.90;;
76552;SDS011;65395;53.168;18.156;2023-03-14T02:33:39;2.90;;;1.50;;
76552;SDS011;65395;53.168;18.156;2023-03-14T02:36:07;4.00;;;1.60;;
76552;SDS011;65395;53.168;18.156;2023-03-14T02:38:45;2.80;;;1.60;;
76552;SDS011;65395;53.168;18.156;2023-03-14T02:41:24;2.30;;;1.50;;
76552;SDS011;65395;53.168;18.156;2023-03-14T02:43:59;3.50;;;1.40;;
76552;SDS011;65395;53.168;18.156;2023-03-14T02:46:26;2.70;;;1.40;;
76552;SDS011;65395;53.168;18.156;2023-03-14T02:48:54;3.60;;;1.60;;
76552;SDS011;65395;53.168;18.156;2023-03-14T02:51:24;2.60;;;1.40;;
76552;SDS011;65395;53.168;18.156;2023-03-14T02:53:52;2.70;;;1.60;;
76552;SDS011;65395;53.168;18.156;2023-03-14T02:56:19;2.50;;;1.70;;
76552;SDS011;65395;53.168;18.156;2023-03-14T02:58:46;3.70;;;1.50;;
76552;SDS011;65395;53.168;18.156;2023-03-14T03:01:20;2.80;;;1.40;;
76552;SDS011;65395;53.168;18.156;2023-03-14T03:03:47;2.70;;;1.30;;
76552;SDS011;65395;53.168;18.156;2023-03-14T03:06:14;1.80;;;1.30;;
76552;SDS011;65395;53.168;18.156;2023-03-14T03:08:41;2.20;;;1.30;;
76552;SDS011;65395;53.168;18.156;2023-03-14T03:11:08;2.80;;;1.30;;
76552;SDS011;65395;53.168;18.156;2023-03-14T03:13:35;2.90;;;1.60;;
76552;SDS011;65395;53.168;18.156;2023-03-14T03:16:02;2.20;;;1.30;;
76552;SDS011;65395;53.168;18.156;2023-03-14T03:18:30;3.00;;;1.30;;
76552;SDS011;65395;53.168;18.156;2023-03-14T03:21:04;1.40;;;1.00;;
76552;SDS011;65395;53.168;18.156;2023-03-14T03:23:31;2.20;;;1.10;;
76552;SDS011;65395;53.168;18.156;2023-03-14T03:25:58;1.20;;;0.90;;
76552;SDS011;65395;53.168;18.156;2023-03-14T03:28:25;2.00;;;1.10;;
76552;SDS011;65395;53.168;18.156;2023-03-14T03:30:52;2.00;;;0.80;;
76552;SDS011;65395;53.168;18.156;2023-03-14T03:33:19;2.00;;;0.90;;
76552;SDS011;65395;53.168;18.156;2023-03-14T03:35:46;1.50;;;1.00;;
76552;SDS011;65395;53.168;18.156;2023-03-14T03:38:18;1.90;;;1.00;;
76552;SDS011;65395;53.168;18.156;2023-03-14T03:40:47;1.50;;;0.80;;
76552;SDS011;65395;53.168;18.156;2023-03-14T03:43:14;2.50;;;0.90;;
76552;SDS011;65395;53.168;18.156;2023-03-14T03:45:43;1.70;;;1.00;;
76552;SDS011;65395;53.168;18.156;2023-03-14T03:48:09;1.80;;;0.90;;
76552;SDS011;65395;53.168;18.156;2023-03-14T03:50:36;5.20;;;1.00;;
76552;SDS011;65395;53.168;18.156;2023-03-14T03:53:03;1.80;;;1.00;;
76552;SDS011;65395;53.168;18.156;2023-03-14T03:55:30;2.30;;;1.00;;
76552;SDS011;65395;53.168;18.156;2023-03-14T03:57:57;2.30;;;1.10;;
76552;SDS011;65395;53.168;18.156;2023-03-14T04:00:23;1.90;;;1.30;;
76552;SDS011;65395;53.168;18.156;2023-03-14T04:02:50;2.90;;;0.90;;
76552;SDS011;65395;53.168;18.156;2023-03-14T04:05:19;1.70;;;0.90;;
76552;SDS011;65395;53.168;18.156;2023-03-14T04:07:54;1.50;;;0.80;;
76552;SDS011;65395;53.168;18.156;2023-03-14T04:10:25;1.40;;;0.90;;
76552;SDS011;65395;53.168;18.156;2023-03-14T04:13:01;1.40;;;0.90;;
76552;SDS011;65395;53.168;18.156;2023-03-14T04:15:30;1.50;;;1.00;;
76552;SDS011;65395;53.168;18.156;2023-03-14T04:18:01;1.90;;;1.00;;
76552;SDS011;65395;53.168;18.156;2023-03-14T04:20:28;2.70;;;1.20;;
76552;SDS011;65395;53.168;18.156;2023-03-14T04:22:54;2.90;;;1.10;;
76552;SDS011;65395;53.168;18.156;2023-03-14T04:25:21;1.70;;;0.90;;
76552;SDS011;65395;53.168;18.156;2023-03-14T04:27:52;1.30;;;0.90;;
76552;SDS011;65395;53.168;18.156;2023-03-14T04:30:23;3.10;;;1.20;;
76552;SDS011;65395;53.168;18.156;2023-03-14T04:32:54;2.70;;;1.40;;
76552;SDS011;65395;53.168;18.156;2023-03-14T04:35:23;4.00;;;1.30;;
76552;SDS011;65395;53.168;18.156;2023-03-14T04:37:53;2.80;;;1.30;;
76552;SDS011;65395;53.168;18.156;2023-03-14T04:40:21;3.30;;;1.50;;
76552;SDS011;65395;53.168;18.156;2023-03-14T04:42:50;2.70;;;1.50;;
76552;SDS011;65395;53.168;18.156;2023-03-14T04:45:17;2.80;;;1.60;;
76552;SDS011;65395;53.168;18.156;2023-03-14T04:47:44;3.30;;;1.90;;
76552;SDS011;65395;53.168;18.156;2023-03-14T04:50:14;4.40;;;2.30;;
76552;SDS011;65395;53.168;18.156;2023-03-14T04:52:41;4.20;;;2.40;;
76552;SDS011;65395;53.168;18.156;2023-03-14T04:55:08;5.00;;;2.10;;
76552;SDS011;65395;53.168;18.156;2023-03-14T04:57:35;5.30;;;2.20;;
76552;SDS011;65395;53.168;18.156;2023-03-14T05:00:03;4.30;;;2.10;;
76552;SDS011;65395;53.168;18.156;2023-03-14T05:02:48;4.70;;;2.10;;
76552;SDS011;65395;53.168;18.156;2023-03-14T05:05:24;3.10;;;2.00;;
76552;SDS011;65395;53.168;18.156;2023-03-14T05:08:02;2.90;;;1.90;;
76552;SDS011;65395;53.168;18.156;2023-03-14T05:10:39;2.60;;;1.60;;
76552;SDS011;65395;53.168;18.156;2023-03-14T05:13:16;3.70;;;1.90;;
76552;SDS011;65395;53.168;18.156;2023-03-14T05:16:05;3.80;;;2.30;;
76552;SDS011;65395;53.168;18.156;2023-03-14T05:18:53;4.50;;;2.40;;
76552;SDS011;65395;53.168;18.156;2023-03-14T05:21:30;6.50;;;3.80;;
76552;SDS011;65395;53.168;18.156;2023-03-14T05:24:14;9.20;;;5.00;;
76552;SDS011;65395;53.168;18.156;2023-03-14T05:26:51;6.80;;;4.60;;
76552;SDS011;65395;53.168;18.156;2023-03-14T05:29:28;6.60;;;3.90;;
76552;SDS011;65395;53.168;18.156;2023-03-14T05:32:06;8.30;;;4.10;;
76552;SDS011;65395;53.168;18.156;2023-03-14T05:34:45;8.10;;;4.80;;
76552;SDS011;65395;53.168;18.156;2023-03-14T05:37:32;8.10;;;5.00;;
76552;SDS011;65395;53.168;18.156;2023-03-14T05:40:09;7.80;;;5.10;;
76552;SDS011;65395;53.168;18.156;2023-03-14T05:42:43;5.90;;;4.10;;
76552;SDS011;65395;53.168;18.156;2023-03-14T05:45:19;7.70;;;4.00;;
76552;SDS011;65395;53.168;18.156;2023-03-14T05:48:03;5.30;;;3.50;;
76552;SDS011;65395;53.168;18.156;2023-03-14T05:50:42;7.60;;;4.10;;
76552;SDS011;65395;53.168;18.156;2023-03-14T05:53:19;8.50;;;4.70;;
76552;SDS011;65395;53.168;18.156;2023-03-14T05:55:53;9.30;;;5.20;;
76552;SDS011;65395;53.168;18.156;2023-03-14T05:58:33;11.00;;;6.10;;
76552;SDS011;65395;53.168;18.156;2023-03-14T06:01:10;11.40;;;6.00;;
76552;SDS011;65395;53.168;18.156;2023-03-14T06:03:46;11.80;;;6.50;;
76552;SDS011;65395;53.168;18.156;2023-03-14T06:06:13;10.80;;;5.80;;
76552;SDS011;65395;53.168;18.156;2023-03-14T06:08:40;13.10;;;5.90;;
76552;SDS011;65395;53.168;18.156;2023-03-14T06:11:10;9.00;;;5.00;;
76552;SDS011;65395;53.168;18.156;2023-03-14T06:13:37;8.90;;;4.80;;
76552;SDS011;65395;53.168;18.156;2023-03-14T06:16:04;8.60;;;4.60;;
76552;SDS011;65395;53.168;18.156;2023-03-14T06:18:31;7.20;;;3.70;;
76552;SDS011;65395;53.168;18.156;2023-03-14T06:20:59;6.90;;;4.30;;
76552;SDS011;65395;53.168;18.156;2023-03-14T06:23:26;7.70;;;3.80;;
76552;SDS011;65395;53.168;18.156;2023-03-14T06:25:53;7.10;;;3.70;;
76552;SDS011;65395;53.168;18.156;2023-03-14T06:28:22;7.70;;;4.40;;
76552;SDS011;65395;53.168;18.156;2023-03-14T06:30:49;6.40;;;3.80;;
76552;SDS011;65395;53.168;18.156;2023-03-14T06:33:16;7.30;;;3.60;;
76552;SDS011;65395;53.168;18.156;2023-03-14T06:35:43;9.80;;;4.00;;
76552;SDS011;65395;53.168;18.156;2023-03-14T06:38:10;8.10;;;3.50;;
76552;SDS011;65395;53.168;18.156;2023-03-14T06:40:37;5.60;;;3.30;;
76552;SDS011;65395;53.168;18.156;2023-03-14T06:43:07;5.80;;;2.90;;
76552;SDS011;65395;53.168;18.156;2023-03-14T06:45:35;6.10;;;3.00;;
76552;SDS011;65395;53.168;18.156;2023-03-14T06:48:02;7.80;;;3.20;;
76552;SDS011;65395;53.168;18.156;2023-03-14T06:50:36;6.50;;;3.30;;
76552;SDS011;65395;53.168;18.156;2023-03-14T06:53:03;5.60;;;3.20;;
76552;SDS011;65395;53.168;18.156;2023-03-14T06:55:31;7.40;;;3.00;;
76552;SDS011;65395;53.168;18.156;2023-03-14T06:57:58;3.80;;;2.60;;
76552;SDS011;65395;53.168;18.156;2023-03-14T07:00:25;4.70;;;2.70;;
76552;SDS011;65395;53.168;18.156;2023-03-14T07:02:54;4.10;;;2.50;;
76552;SDS011;65395;53.168;18.156;2023-03-14T07:05:25;6.60;;;3.20;;
76552;SDS011;65395;53.168;18.156;2023-03-14T07:07:52;6.40;;;3.30;;
76552;SDS011;65395;53.168;18.156;2023-03-14T07:10:19;8.30;;;3.50;;
76552;SDS011;65395;53.168;18.156;2023-03-14T07:12:46;6.00;;;3.30;;
76552;SDS011;65395;53.168;18.156;2023-03-14T07:15:13;7.40;;;3.50;;
76552;SDS011;65395;53.168;18.156;2023-03-14T07:17:40;7.00;;;3.70;;
76552;SDS011;65395;53.168;18.156;2023-03-14T07:20:07;5.80;;;3.10;;
76552;SDS011;65395;53.168;18.156;2023-03-14T07:22:35;5.10;;;3.30;;
76552;SDS011;65395;53.168;18.156;2023-03-14T07:25:02;6.20;;;3.70;;
76552;SDS011;65395;53.168;18.156;2023-03-14T07:27:29;6.60;;;3.70;;
76552;SDS011;65395;53.168;18.156;2023-03-14T07:29:56;7.10;;;3.50;;
76552;SDS011;65395;53.168;18.156;2023-03-14T07:32:23;6.90;;;3.50;;
76552;SDS011;65395;53.168;18.156;2023-03-14T07:34:50;7.40;;;3.70;;
76552;SDS011;65395;53.168;18.156;2023-03-14T07:37:16;8.00;;;3.50;;
76552;SDS011;65395;53.168;18.156;2023-03-14T07:39:43;7.80;;;3.70;;
76552;SDS011;65395;53.168;18.156;2023-03-14T07:42:18;5.40;;;3.10;;
76552;SDS011;65395;53.168;18.156;2023-03-14T07:44:55;5.20;;;3.40;;
76552;SDS011;65395;53.168;18.156;2023-03-14T07:47:21;7.20;;;3.50;;
76552;SDS011;65395;53.168;18.156;2023-03-14T07:49:48;7.30;;;3.40;;
76552;SDS011;65395;53.168;18.156;2023-03-14T07:52:14;8.90;;;3.60;;
76552;SDS011;65395;53.168;18.156;2023-03-14T07:54:41;6.40;;;3.50;;
76552;SDS011;65395;53.168;18.156;2023-03-14T07:57:08;8.90;;;3.50;;
76552;SDS011;65395;53.168;18.156;2023-03-14T07:59:34;5.80;;;3.00;;
76552;SDS011;65395;53.168;18.156;2023-03-14T08:02:01;5.60;;;3.60;;
76552;SDS011;65395;53.168;18.156;2023-03-14T08:04:27;7.50;;;3.40;;
76552;SDS011;65395;53.168;18.156;2023-03-14T08:06:55;6.50;;;3.60;;
76552;SDS011;65395;53.168;18.156;2023-03-14T08:09:21;6.20;;;3.30;;
76552;SDS011;65395;53.168;18.156;2023-03-14T08:11:48;6.20;;;3.40;;
76552;SDS011;65395;53.168;18.156;2023-03-14T08:14:15;7.50;;;3.50;;
76552;SDS011;65395;53.168;18.156;2023-03-14T08:16:42;7.70;;;3.90;;
76552;SDS011;65395;53.168;18.156;2023-03-14T08:19:08;6.40;;;3.50;;
76552;SDS011;65395;53.168;18.156;2023-03-14T08:21:35;6.30;;;3.40;;
76552;SDS011;65395;53.168;18.156;2023-03-14T08:24:02;5.50;;;3.30;;
76552;SDS011;65395;53.168;18.156;2023-03-14T08:26:29;6.50;;;3.50;;
76552;SDS011;65395;53.168;18.156;2023-03-14T08:28:56;6.90;;;3.10;;
76552;SDS011;65395;53.168;18.156;2023-03-14T08:31:23;5.90;;;3.00;;
76552;SDS011;65395;53.168;18.156;2023-03-14T08:33:50;5.60;;;3.10;;
76552;SDS011;65395;53.168;18.156;2023-03-14T08:36:18;4.70;;;2.90;;
76552;SDS011;65395;53.168;18.156;2023-03-14T08:38:46;5.30;;;2.70;;
76552;SDS011;65395;53.168;18.156;2023-03-14T08:41:12;6.70;;;3.00;;
76552;SDS011;65395;53.168;18.156;2023-03-14T08:43:39;5.90;;;2.90;;
76552;SDS011;65395;53.168;18.156;2023-03-14T08:46:05;5.60;;;2.80;;
76552;SDS011;65395;53.168;18.156;2023-03-14T08:48:33;5.30;;;2.80;;
76552;SDS011;65395;53.168;18.156;2023-03-14T08:51:07;5.20;;;3.20;;
76552;SDS011;65395;53.168;18.156;2023-03-14T08:53:37;4.80;;;3.10;;
76552;SDS011;65395;53.168;18.156;2023-03-14T08:56:03;7.80;;;3.00;;
76552;SDS011;65395;53.168;18.156;2023-03-14T08:58:32;5.50;;;3.10;;
76552;SDS011;65395;53.168;18.156;2023-03-14T09:01:00;4.20;;;2.90;;
76552;SDS011;65395;53.168;18.156;2023-03-14T09:03:26;6.20;;;2.80;;
76552;SDS011;65395;53.168;18.156;2023-03-14T09:05:53;5.30;;;2.90;;
76552;SDS011;65395;53.168;18.156;2023-03-14T09:08:19;4.00;;;2.80;;
76552;SDS011;65395;53.168;18.156;2023-03-14T09:10:46;4.90;;;2.70;;
76552;SDS011;65395;53.168;18.156;2023-03-14T09:13:13;5.50;;;2.40;;
76552;SDS011;65395;53.168;18.156;2023-03-14T09:15:39;7.70;;;2.70;;
76552;SDS011;65395;53.168;18.156;2023-03-14T09:18:08;4.40;;;2.30;;
76552;SDS011;65395;53.168;18.156;2023-03-14T09:20:35;4.80;;;2.40;;
76552;SDS011;65395;53.168;18.156;2023-03-14T09:23:02;4.70;;;2.30;;
76552;SDS011;65395;53.168;18.156;2023-03-14T09:25:29;4.10;;;2.40;;
76552;SDS011;65395;53.168;18.156;2023-03-14T09:27:55;5.00;;;2.60;;
76552;SDS011;65395;53.168;18.156;2023-03-14T09:30:22;3.90;;;2.40;;
76552;SDS011;65395;53.168;18.156;2023-03-14T09:32:48;4.10;;;2.10;;
76552;SDS011;65395;53.168;18.156;2023-03-14T09:35:15;4.20;;;2.40;;
76552;SDS011;65395;53.168;18.156;2023-03-14T09:37:42;3.50;;;2.40;;
76552;SDS011;65395;53.168;18.156;2023-03-14T09:40:11;4.90;;;2.30;;
76552;SDS011;65395;53.168;18.156;2023-03-14T09:42:40;4.80;;;2.40;;
76552;SDS011;65395;53.168;18.156;2023-03-14T09:47:51;4.10;;;2.20;;
76552;SDS011;65395;53.168;18.156;2023-03-14T09:50:19;5.40;;;2.40;;
76552;SDS011;65395;53.168;18.156;2023-03-14T09:52:48;3.80;;;2.00;;
76552;SDS011;65395;53.168;18.156;2023-03-14T09:55:19;3.30;;;2.00;;
76552;SDS011;65395;53.168;18.156;2023-03-14T09:57:49;3.60;;;2.10;;
76552;SDS011;65395;53.168;18.156;2023-03-14T10:00:21;4.00;;;1.80;;
76552;SDS011;65395;53.168;18.156;2023-03-14T10:02:53;4.60;;;1.90;;
76552;SDS011;65395;53.168;18.156;2023-03-14T10:05:23;3.30;;;1.70;;
76552;SDS011;65395;53.168;18.156;2023-03-14T10:07:52;4.80;;;2.10;;
76552;SDS011;65395;53.168;18.156;2023-03-14T10:10:20;4.90;;;1.80;;
76552;SDS011;65395;53.168;18.156;2023-03-14T10:12:55;4.60;;;2.20;;
76552;SDS011;65395;53.168;18.156;2023-03-14T10:15:26;4.00;;;1.70;;
76552;SDS011;65395;53.168;18.156;2023-03-14T10:17:58;3.90;;;1.90;;
76552;SDS011;65395;53.168;18.156;2023-03-14T10:20:29;4.10;;;1.90;;
76552;SDS011;65395;53.168;18.156;2023-03-14T10:23:06;2.70;;;1.80;;
76552;SDS011;65395;53.168;18.156;2023-03-14T10:25:58;5.60;;;1.80;;
76552;SDS011;65395;53.168;18.156;2023-03-14T10:28:30;3.90;;;1.70;;
76552;SDS011;65395;53.168;18.156;2023-03-14T10:31:00;5.20;;;1.80;;
76552;SDS011;65395;53.168;18.156;2023-03-14T10:33:28;3.20;;;1.70;;
76552;SDS011;65395;53.168;18.156;2023-03-14T10:35:59;3.30;;;1.60;;
76552;SDS011;65395;53.168;18.156;2023-03-14T10:38:31;4.60;;;1.70;;
76552;SDS011;65395;53.168;18.156;2023-03-14T10:40:59;2.40;;;1.40;;
76552;SDS011;65395;53.168;18.156;2023-03-14T10:43:27;2.40;;;1.50;;
76552;SDS011;65395;53.168;18.156;2023-03-14T10:45:59;4.40;;;1.50;;
76552;SDS011;65395;53.168;18.156;2023-03-14T10:48:34;2.80;;;1.50;;
76552;SDS011;65395;53.168;18.156;2023-03-14T10:51:07;3.80;;;1.70;;
76552;SDS011;65395;53.168;18.156;2023-03-14T10:53:41;5.90;;;1.30;;
76552;SDS011;65395;53.168;18.156;2023-03-14T10:56:19;5.00;;;1.60;;
76552;SDS011;65395;53.168;18.156;2023-03-14T10:58:50;5.70;;;1.60;;
76552;SDS011;65395;53.168;18.156;2023-03-14T11:01:31;5.00;;;1.50;;
76552;SDS011;65395;53.168;18.156;2023-03-14T11:04:13;3.80;;;1.50;;
76552;SDS011;65395;53.168;18.156;2023-03-14T11:09:51;4.20;;;1.50;;
76552;SDS011;65395;53.168;18.156;2023-03-14T11:12:31;3.70;;;1.50;;
76552;SDS011;65395;53.168;18.156;2023-03-14T11:15:17;4.40;;;1.80;;
76552;SDS011;65395;53.168;18.156;2023-03-14T11:20:58;3.40;;;1.50;;
76552;SDS011;65395;53.168;18.156;2023-03-14T11:23:40;4.80;;;1.50;;
76552;SDS011;65395;53.168;18.156;2023-03-14T11:26:21;3.20;;;1.30;;
76552;SDS011;65395;53.168;18.156;2023-03-14T11:28:58;3.10;;;1.70;;
76552;SDS011;65395;53.168;18.156;2023-03-14T11:31:38;5.10;;;1.50;;
76552;SDS011;65395;53.168;18.156;2023-03-14T11:34:17;3.50;;;1.60;;
76552;SDS011;65395;53.168;18.156;2023-03-14T11:42:15;5.50;;;1.60;;
76552;SDS011;65395;53.168;18.156;2023-03-14T11:44:44;4.00;;;1.60;;
76552;SDS011;65395;53.168;18.156;2023-03-14T11:47:16;5.30;;;1.60;;
76552;SDS011;65395;53.168;18.156;2023-03-14T11:49:53;3.90;;;1.60;;
76552;SDS011;65395;53.168;18.156;2023-03-14T11:52:31;2.60;;;1.40;;
76552;SDS011;65395;53.168;18.156;2023-03-14T11:55:11;4.60;;;2.20;;
76552;SDS011;65395;53.168;18.156;2023-03-14T11:57:45;3.80;;;1.80;;
76552;SDS011;65395;53.168;18.156;2023-03-14T12:00:20;6.80;;;1.70;;
76552;SDS011;65395;53.168;18.156;2023-03-14T12:02:52;4.40;;;1.40;;
76552;SDS011;65395;53.168;18.156;2023-03-14T12:05:52;4.80;;;1.60;;
76552;SDS011;65395;53.168;18.156;2023-03-14T12:11:16;3.60;;;1.70;;
76552;SDS011;65395;53.168;18.156;2023-03-14T12:13:51;4.50;;;1.70;;
76552;SDS011;65395;53.168;18.156;2023-03-14T12:16:32;3.60;;;1.70;;
76552;SDS011;65395;53.168;18.156;2023-03-14T12:19:13;4.90;;;1.80;;
76552;SDS011;65395;53.168;18.156;2023-03-14T12:21:44;6.30;;;1.70;;
76552;SDS011;65395;53.168;18.156;2023-03-14T12:24:23;2.70;;;1.60;;
76552;SDS011;65395;53.168;18.156;2023-03-14T12:26:55;5.20;;;1.90;;
76552;SDS011;65395;53.168;18.156;2023-03-14T12:29:24;2.50;;;1.70;;
76552;SDS011;65395;53.168;18.156;2023-03-14T12:34:47;4.30;;;1.70;;
76552;SDS011;65395;53.168;18.156;2023-03-14T12:42:57;5.70;;;1.70;;
76552;SDS011;65395;53.168;18.156;2023-03-14T12:45:27;5.50;;;1.70;;
76552;SDS011;65395;53.168;18.156;2023-03-14T12:48:10;4.20;;;1.70;;
76552;SDS011;65395;53.168;18.156;2023-03-14T12:51:00;4.90;;;1.90;;
76552;SDS011;65395;53.168;18.156;2023-03-14T12:53:37;5.60;;;2.00;;
76552;SDS011;65395;53.168;18.156;2023-03-14T12:56:19;7.50;;;2.00;;
76552;SDS011;65395;53.168;18.156;2023-03-14T13:01:44;3.50;;;2.10;;
76552;SDS011;65395;53.168;18.156;2023-03-14T13:04:14;5.30;;;2.10;;
76552;SDS011;65395;53.168;18.156;2023-03-14T13:06:50;8.30;;;2.50;;
76552;SDS011;65395;53.168;18.156;2023-03-14T13:09:36;8.90;;;3.20;;
76552;SDS011;65395;53.168;18.156;2023-03-14T13:12:19;5.50;;;2.10;;
76552;SDS011;65395;53.168;18.156;2023-03-14T13:14:54;7.40;;;2.30;;
76552;SDS011;65395;53.168;18.156;2023-03-14T13:17:23;5.90;;;2.10;;
76552;SDS011;65395;53.168;18.156;2023-03-14T13:19:53;5.10;;;2.00;;
76552;SDS011;65395;53.168;18.156;2023-03-14T13:22:26;7.30;;;2.40;;
76552;SDS011;65395;53.168;18.156;2023-03-14T13:24:59;5.80;;;2.10;;
76552;SDS011;65395;53.168;18.156;2023-03-14T13:27:29;6.10;;;2.30;;
76552;SDS011;65395;53.168;18.156;2023-03-14T13:29:58;4.70;;;1.90;;
76552;SDS011;65395;53.168;18.156;2023-03-14T13:32:26;6.20;;;2.00;;
76552;SDS011;65395;53.168;18.156;2023-03-14T13:34:56;8.30;;;2.40;;
76552;SDS011;65395;53.168;18.156;2023-03-14T13:37:24;6.60;;;2.20;;
76552;SDS011;65395;53.168;18.156;2023-03-14T13:39:54;6.10;;;2.30;;
76552;SDS011;65395;53.168;18.156;2023-03-14T13:42:24;3.80;;;1.80;;
76552;SDS011;65395;53.168;18.156;2023-03-14T13:44:54;5.50;;;2.10;;
76552;SDS011;65395;53.168;18.156;2023-03-14T13:47:24;9.80;;;2.70;;
76552;SDS011;65395;53.168;18.156;2023-03-14T13:49:52;5.10;;;2.30;;
76552;SDS011;65395;53.168;18.156;2023-03-14T13:52:23;6.10;;;2.20;;
76552;SDS011;65395;53.168;18.156;2023-03-14T13:54:55;7.60;;;2.30;;
76552;SDS011;65395;53.168;18.156;2023-03-14T13:57:23;6.80;;;2.10;;
76552;SDS011;65395;53.168;18.156;2023-03-14T13:59:58;5.80;;;2.40;;
76552;SDS011;65395;53.168;18.156;2023-03-14T14:02:33;8.10;;;1.90;;
76552;SDS011;65395;53.168;18.156;2023-03-14T14:05:02;5.80;;;2.10;;
76552;SDS011;65395;53.168;18.156;2023-03-14T14:07:30;7.10;;;2.30;;
76552;SDS011;65395;53.168;18.156;2023-03-14T14:09:58;5.50;;;2.40;;
76552;SDS011;65395;53.168;18.156;2023-03-14T14:12:29;7.90;;;2.70;;
76552;SDS011;65395;53.168;18.156;2023-03-14T14:15:14;4.30;;;2.10;;
76552;SDS011;65395;53.168;18.156;2023-03-14T14:17:47;5.60;;;2.10;;
76552;SDS011;65395;53.168;18.156;2023-03-14T14:20:27;3.80;;;2.00;;
76552;SDS011;65395;53.168;18.156;2023-03-14T14:22:58;6.70;;;2.60;;
76552;SDS011;65395;53.168;18.156;2023-03-14T14:25:28;5.90;;;2.40;;
76552;SDS011;65395;53.168;18.156;2023-03-14T14:27:56;4.90;;;2.70;;
76552;SDS011;65395;53.168;18.156;2023-03-14T14:30:25;5.20;;;2.20;;
76552;SDS011;65395;53.168;18.156;2023-03-14T14:33:09;5.60;;;2.10;;
76552;SDS011;65395;53.168;18.156;2023-03-14T14:35:48;6.60;;;2.40;;
76552;SDS011;65395;53.168;18.156;2023-03-14T14:38:18;4.80;;;2.10;;
76552;SDS011;65395;53.168;18.156;2023-03-14T14:40:48;5.90;;;2.00;;
76552;SDS011;65395;53.168;18.156;2023-03-14T14:43:20;7.20;;;2.00;;
76552;SDS011;65395;53.168;18.156;2023-03-14T14:45:50;7.10;;;2.10;;
76552;SDS011;65395;53.168;18.156;2023-03-14T14:48:20;5.80;;;2.10;;
76552;SDS011;65395;53.168;18.156;2023-03-14T14:53:36;3.40;;;2.10;;
76552;SDS011;65395;53.168;18.156;2023-03-14T14:58:44;5.40;;;2.40;;
76552;SDS011;65395;53.168;18.156;2023-03-14T15:01:14;4.40;;;2.10;;
76552;SDS011;65395;53.168;18.156;2023-03-14T15:03:44;4.60;;;2.10;;
76552;SDS011;65395;53.168;18.156;2023-03-14T15:06:14;9.40;;;2.40;;
76552;SDS011;65395;53.168;18.156;2023-03-14T15:08:43;6.10;;;2.20;;
76552;SDS011;65395;53.168;18.156;2023-03-14T15:11:16;5.20;;;2.30;;
76552;SDS011;65395;53.168;18.156;2023-03-14T15:13:44;4.30;;;1.90;;
76552;SDS011;65395;53.168;18.156;2023-03-14T15:16:12;4.20;;;1.60;;
76552;SDS011;65395;53.168;18.156;2023-03-14T15:18:40;3.40;;;1.60;;
76552;SDS011;65395;53.168;18.156;2023-03-14T15:21:09;6.30;;;1.80;;
76552;SDS011;65395;53.168;18.156;2023-03-14T15:23:37;6.20;;;2.20;;
76552;SDS011;65395;53.168;18.156;2023-03-14T15:26:08;3.30;;;1.80;;
76552;SDS011;65395;53.168;18.156;2023-03-14T15:28:39;3.90;;;1.40;;
76552;SDS011;65395;53.168;18.156;2023-03-14T15:31:08;3.00;;;1.60;;
76552;SDS011;65395;53.168;18.156;2023-03-14T15:33:37;2.90;;;1.40;;